Chrisopigi Lady — A8EQ9 — position and weather

sailwx.info

Track history (hours):
 
Tides and Currents Weather Stations Pressure Air Temp Water Temp Dewpoint Dewpoint Depression Visibility Wind Speed Wind Dir Waves Ship Positions

Chrisopigi Lady

Last reported at 2015-Jan-14 09:33 UTC. Time now 2015-Jan-29 16:26 UTC.
Position N 01°54' E 102°22'.
Warning: this ship's position is 15 days out of date.

Length 228 m; draft 8.1 m.

Type: Ship (hazmat cat A). MMSI: 636012314.

Date/timePositionNaut miles runAvg speedWind from/ knotsBaromVisibWave heightAir tempDewpointWater temp
2015-Jan-14 09:33N 01°54' E 102°22'1716.1
2015-Jan-14 08:32N 01°48' E 102°37'8015.0
2015-Jan-14 03:13N 01°10' E 103°47'1114.5
2015-Jan-14 02:27N 01°14' E 103°58'3 1.0
2015-Jan-13 23:06N 01°17' E 103°60'0 0.0
2015-Jan-13 22:24N 01°17' E 103°60'0 0.0
2015-Jan-13 21:15N 01°17' E 103°60'0 0.0
2015-Jan-13 18:29N 01°17' E 103°60'0 0.0
2015-Jan-13 17:14N 01°17' E 103°60'0 0.0
2015-Jan-13 15:32N 01°17' E 103°60'0 0.0
2015-Jan-13 09:32N 01°17' E 103°60'0 0.0
2015-Jan-13 06:33N 01°17' E 103°60'1 1.3
2015-Jan-13 05:33N 01°16' E 103°59'10 9.7
2015-Jan-13 04:32N 01°16' E 104°09'  
2015-Jan-06 09:07N 31°05' E 122°29'813.9
2015-Jan-06 08:33N 31°06' E 122°20'1212.4
2015-Jan-06 07:34N 31°13' E 122°07'1313.4
2015-Jan-06 06:33N 31°16' E 121°52'1212.4
2015-Jan-06 05:33N 31°21' E 121°39'9 8.9
2015-Jan-06 04:33N 31°26' E 121°30'9 9.0
2015-Jan-06 03:33N 31°32' E 121°22'1313.0
2015-Jan-06 02:33N 31°41' E 121°11'1414.0
2015-Jan-06 01:33N 31°47' E 120°56'1313.4
2015-Jan-06 00:34N 31°59' E 120°49'0 0.2
2015-Jan-05 23:32N 31°59' E 120°49'0 0.1
2015-Jan-05 22:32N 31°59' E 120°49'0 0.0
2015-Jan-05 21:33N 31°59' E 120°49'0 0.0
2015-Jan-05 20:33N 31°59' E 120°49'0 0.2
2015-Jan-05 19:33N 31°59' E 120°49'0 0.0
2015-Jan-05 18:32N 31°59' E 120°49'0 0.2
2015-Jan-05 17:33N 31°59' E 120°49'0 0.1
2015-Jan-05 16:33N 31°59' E 120°49'0 0.0
2015-Jan-05 15:33N 31°59' E 120°49'0 0.0
2015-Jan-05 14:11N 31°59' E 120°49'0 0.0
2015-Jan-05 13:28N 31°59' E 120°49'0 0.1
2015-Jan-05 12:33N 31°59' E 120°49'0 0.0
2015-Jan-05 11:33N 31°59' E 120°49'0 0.0
2015-Jan-05 10:32N 31°59' E 120°49'0 0.1
2015-Jan-05 09:33N 31°59' E 120°49'0 0.2
2015-Jan-05 08:33N 31°59' E 120°49'0 0.0
2015-Jan-05 07:33N 31°59' E 120°49'0 0.1
2015-Jan-05 06:33N 31°59' E 120°49'0 0.0
2015-Jan-05 05:34N 31°59' E 120°49'0 0.1
2015-Jan-05 04:33N 31°59' E 120°49'1 0.8
2015-Jan-05 03:32N 31°60' E 120°50'0 0.2
2015-Jan-05 02:33N 31°60' E 120°50'0 0.0
2015-Jan-05 01:27N 31°60' E 120°50'0 0.0
2015-Jan-05 00:33N 31°60' E 120°50'0 0.0
2015-Jan-04 23:33N 31°60' E 120°50'0 0.0
2015-Jan-04 22:24N 31°60' E 120°50'0 0.0
2015-Jan-04 21:33N 31°60' E 120°50'0 0.0
2015-Jan-04 20:33N 31°60' E 120°50'0 0.0
2015-Jan-04 19:33N 31°60' E 120°50'0 0.0
2015-Jan-04 18:27N 31°60' E 120°50'0 0.0
2015-Jan-04 17:33N 31°60' E 120°50'0 0.0
2015-Jan-04 16:30N 31°60' E 120°50'0 0.0
2015-Jan-04 15:30N 31°60' E 120°50'0 0.0
2015-Jan-04 14:30N 31°60' E 120°50'0 0.0
2015-Jan-04 13:33N 31°60' E 120°50'0 0.0
2015-Jan-04 12:30N 31°60' E 120°50'0 0.0
2015-Jan-04 11:27N 31°60' E 120°50'0 0.0
2015-Jan-04 10:33N 31°60' E 120°50'  
Track history (hours):
 
Tides and Currents Weather Stations Pressure Air Temp Water Temp Dewpoint Dewpoint Depression Visibility Wind Speed Wind Dir Waves Ship Positions

Chrisopigi Lady

Last reported at 2015-Jan-14 09:33 UTC. Time now 2015-Jan-29 16:26 UTC.
Position N 01°54' E 102°22'.
Warning: this ship's position is 15 days out of date.

Length 228 m; draft 8.1 m.

Type: Ship (hazmat cat A). MMSI: 636012314.

Date/timePositionNaut miles runAvg speedWind from/ knotsBaromVisibWave heightAir tempDewpointWater temp
2015-Jan-14 09:33N 01°54' E 102°22'1716.1
2015-Jan-14 08:32N 01°48' E 102°37'8015.0
2015-Jan-14 03:13N 01°10' E 103°47'1114.5
2015-Jan-14 02:27N 01°14' E 103°58'3 1.0
2015-Jan-13 23:06N 01°17' E 103°60'0 0.0
2015-Jan-13 22:24N 01°17' E 103°60'0 0.0
2015-Jan-13 21:15N 01°17' E 103°60'0 0.0
2015-Jan-13 18:29N 01°17' E 103°60'0 0.0
2015-Jan-13 17:14N 01°17' E 103°60'0 0.0
2015-Jan-13 15:32N 01°17' E 103°60'0 0.0
2015-Jan-13 09:32N 01°17' E 103°60'0 0.0
2015-Jan-13 06:33N 01°17' E 103°60'1 1.3
2015-Jan-13 05:33N 01°16' E 103°59'10 9.7
2015-Jan-13 04:32N 01°16' E 104°09'  
2015-Jan-06 09:07N 31°05' E 122°29'813.9
2015-Jan-06 08:33N 31°06' E 122°20'1212.4
2015-Jan-06 07:34N 31°13' E 122°07'1313.4
2015-Jan-06 06:33N 31°16' E 121°52'1212.4
2015-Jan-06 05:33N 31°21' E 121°39'9 8.9
2015-Jan-06 04:33N 31°26' E 121°30'9 9.0
2015-Jan-06 03:33N 31°32' E 121°22'1313.0
2015-Jan-06 02:33N 31°41' E 121°11'1414.0
2015-Jan-06 01:33N 31°47' E 120°56'1313.4
2015-Jan-06 00:34N 31°59' E 120°49'0 0.2
2015-Jan-05 23:32N 31°59' E 120°49'0 0.1
2015-Jan-05 22:32N 31°59' E 120°49'0 0.0
2015-Jan-05 21:33N 31°59' E 120°49'0 0.0
2015-Jan-05 20:33N 31°59' E 120°49'0 0.2
2015-Jan-05 19:33N 31°59' E 120°49'0 0.0
2015-Jan-05 18:32N 31°59' E 120°49'0 0.2
2015-Jan-05 17:33N 31°59' E 120°49'0 0.1
2015-Jan-05 16:33N 31°59' E 120°49'0 0.0
2015-Jan-05 15:33N 31°59' E 120°49'0 0.0
2015-Jan-05 14:11N 31°59' E 120°49'0 0.0
2015-Jan-05 13:28N 31°59' E 120°49'0 0.1
2015-Jan-05 12:33N 31°59' E 120°49'0 0.0
2015-Jan-05 11:33N 31°59' E 120°49'0 0.0
2015-Jan-05 10:32N 31°59' E 120°49'0 0.1
2015-Jan-05 09:33N 31°59' E 120°49'0 0.2
2015-Jan-05 08:33N 31°59' E 120°49'0 0.0
2015-Jan-05 07:33N 31°59' E 120°49'0 0.1
2015-Jan-05 06:33N 31°59' E 120°49'0 0.0
2015-Jan-05 05:34N 31°59' E 120°49'0 0.1
2015-Jan-05 04:33N 31°59' E 120°49'1 0.8
2015-Jan-05 03:32N 31°60' E 120°50'0 0.2
2015-Jan-05 02:33N 31°60' E 120°50'0 0.0
2015-Jan-05 01:27N 31°60' E 120°50'0 0.0
2015-Jan-05 00:33N 31°60' E 120°50'0 0.0
2015-Jan-04 23:33N 31°60' E 120°50'0 0.0
2015-Jan-04 22:24N 31°60' E 120°50'0 0.0
2015-Jan-04 21:33N 31°60' E 120°50'0 0.0
2015-Jan-04 20:33N 31°60' E 120°50'0 0.0
2015-Jan-04 19:33N 31°60' E 120°50'0 0.0
2015-Jan-04 18:27N 31°60' E 120°50'0 0.0
2015-Jan-04 17:33N 31°60' E 120°50'0 0.0
2015-Jan-04 16:30N 31°60' E 120°50'0 0.0
2015-Jan-04 15:30N 31°60' E 120°50'0 0.0
2015-Jan-04 14:30N 31°60' E 120°50'0 0.0
2015-Jan-04 13:33N 31°60' E 120°50'0 0.0
2015-Jan-04 12:30N 31°60' E 120°50'0 0.0
2015-Jan-04 11:27N 31°60' E 120°50'0 0.0
2015-Jan-04 10:33N 31°60' E 120°50'  

Dump ship's entire track history